aviador You're here:

RODN Decoded Metar

KADENA in JAPAN
Report Time2017-08-18 09:56:00
UTC Time2017-08-18 10:50:14
Flight Rules vfr VFR
Wind040° at 05 kt
W.Decomp.*RWY 05: 5.0 kt HW 0.5 kt LCW
W.Rank040° ranks 3
Current wind is below 040° avg. (7.1)
Visibility9999 m
Phenomena:N/A
Clouds:Broken 032 Hf
Broken 049 Hf
Expected CloudBase > 2,000 ft AGL from Temp-Dew spread
Ceiling3,200 ft
Temp30°C (ISA +15)
Dew Point25°C (75% RH)
Heat Index36.3°C
QNH1011 hPa
Density Alt2,382 ft
Elevation148 ft
Report Wrong Elevation
Raw Report
RODN 180956Z AUTO 04005KT 10SM BKN032 BKN049 30/25 A2986 RMK AO2
SLP116 T03010247 $=

Extra information for RODN:More info

Metar Taf Metar & Taf Last 4 Metars F.Rules Stats Wind Profile Meteogram Temp Stats Airport Information Weather charts Add Link Nearby VenuesMetar ALERT Operation Metar Decoded Social comments